sensor_id;sensor_type;location;lat;lon;timestamp;P1;durP1;ratioP1;P2;durP2;ratioP2
17151;SDS011;8691;50.828;4.700;2022-09-02T00:31:06;4.72;;;2.78;;
17151;SDS011;8691;50.828;4.700;2022-09-02T00:33:33;3.97;;;2.47;;
17151;SDS011;8691;50.828;4.700;2022-09-02T00:36:01;2.80;;;2.37;;
17151;SDS011;8691;50.828;4.700;2022-09-02T00:38:27;2.40;;;2.13;;
17151;SDS011;8691;50.828;4.700;2022-09-02T00:40:54;6.43;;;2.33;;
17151;SDS011;8691;50.828;4.700;2022-09-02T00:43:36;5.63;;;2.60;;
17151;SDS011;8691;50.828;4.700;2022-09-02T00:45:48;2.33;;;2.13;;
17151;SDS011;8691;50.828;4.700;2022-09-02T00:48:14;2.43;;;2.13;;
17151;SDS011;8691;50.828;4.700;2022-09-02T00:50:41;2.47;;;2.27;;
17151;SDS011;8691;50.828;4.700;2022-09-02T00:53:09;3.20;;;2.40;;
17151;SDS011;8691;50.828;4.700;2022-09-02T00:55:39;3.27;;;2.57;;
17151;SDS011;8691;50.828;4.700;2022-09-02T00:58:05;6.67;;;2.40;;
17151;SDS011;8691;50.828;4.700;2022-09-02T01:00:33;3.17;;;2.63;;
17151;SDS011;8691;50.828;4.700;2022-09-02T01:03:04;2.90;;;2.50;;
17151;SDS011;8691;50.828;4.700;2022-09-02T01:05:28;2.87;;;2.53;;
17151;SDS011;8691;50.828;4.700;2022-09-02T01:07:54;4.60;;;2.60;;
17151;SDS011;8691;50.828;4.700;2022-09-02T01:10:22;7.10;;;2.57;;
17151;SDS011;8691;50.828;4.700;2022-09-02T01:12:48;2.83;;;2.37;;
17151;SDS011;8691;50.828;4.700;2022-09-02T01:15:14;2.63;;;2.37;;
17151;SDS011;8691;50.828;4.700;2022-09-02T01:17:47;3.60;;;2.20;;
17151;SDS011;8691;50.828;4.700;2022-09-02T01:20:10;3.40;;;2.27;;
17151;SDS011;8691;50.828;4.700;2022-09-02T01:22:36;3.50;;;2.30;;
17151;SDS011;8691;50.828;4.700;2022-09-02T01:25:04;5.20;;;2.53;;
17151;SDS011;8691;50.828;4.700;2022-09-02T01:27:29;3.43;;;2.10;;
17151;SDS011;8691;50.828;4.700;2022-09-02T01:29:57;4.80;;;2.30;;
17151;SDS011;8691;50.828;4.700;2022-09-02T01:32:24;3.97;;;2.20;;
17151;SDS011;8691;50.828;4.700;2022-09-02T01:34:50;5.07;;;2.17;;
17151;SDS011;8691;50.828;4.700;2022-09-02T01:37:17;4.33;;;2.00;;
17151;SDS011;8691;50.828;4.700;2022-09-02T01:39:43;3.03;;;2.20;;
17151;SDS011;8691;50.828;4.700;2022-09-02T01:42:10;6.00;;;2.40;;
17151;SDS011;8691;50.828;4.700;2022-09-02T01:44:37;3.00;;;2.30;;
17151;SDS011;8691;50.828;4.700;2022-09-02T01:47:04;4.40;;;2.20;;
17151;SDS011;8691;50.828;4.700;2022-09-02T01:49:30;2.70;;;2.17;;
17151;SDS011;8691;50.828;4.700;2022-09-02T01:51:57;3.47;;;2.17;;
17151;SDS011;8691;50.828;4.700;2022-09-02T01:54:23;3.53;;;1.90;;
17151;SDS011;8691;50.828;4.700;2022-09-02T01:56:50;2.40;;;2.00;;
17151;SDS011;8691;50.828;4.700;2022-09-02T01:59:17;3.97;;;2.10;;
17151;SDS011;8691;50.828;4.700;2022-09-02T02:01:44;4.00;;;2.00;;
17151;SDS011;8691;50.828;4.700;2022-09-02T02:04:11;2.97;;;2.23;;
17151;SDS011;8691;50.828;4.700;2022-09-02T02:06:39;5.23;;;2.23;;
17151;SDS011;8691;50.828;4.700;2022-09-02T02:09:05;2.20;;;2.00;;
17151;SDS011;8691;50.828;4.700;2022-09-02T02:11:31;2.60;;;2.10;;
17151;SDS011;8691;50.828;4.700;2022-09-02T02:13:58;3.90;;;2.40;;
17151;SDS011;8691;50.828;4.700;2022-09-02T02:16:25;2.90;;;2.40;;
17151;SDS011;8691;50.828;4.700;2022-09-02T02:18:52;3.40;;;2.35;;
17151;SDS011;8691;50.828;4.700;2022-09-02T02:21:18;5.20;;;2.77;;
17151;SDS011;8691;50.828;4.700;2022-09-02T02:23:45;2.67;;;2.27;;
17151;SDS011;8691;50.828;4.700;2022-09-02T02:26:12;3.17;;;2.27;;
17151;SDS011;8691;50.828;4.700;2022-09-02T02:28:39;2.93;;;2.40;;
17151;SDS011;8691;50.828;4.700;2022-09-02T02:31:06;5.93;;;2.60;;
17151;SDS011;8691;50.828;4.700;2022-09-02T02:33:33;3.00;;;2.30;;
17151;SDS011;8691;50.828;4.700;2022-09-02T02:36:00;4.50;;;2.87;;
17151;SDS011;8691;50.828;4.700;2022-09-02T02:38:27;3.00;;;2.53;;
17151;SDS011;8691;50.828;4.700;2022-09-02T02:40:54;4.33;;;2.43;;
17151;SDS011;8691;50.828;4.700;2022-09-02T02:43:21;5.40;;;2.60;;
17151;SDS011;8691;50.828;4.700;2022-09-02T02:45:48;4.10;;;2.40;;
17151;SDS011;8691;50.828;4.700;2022-09-02T02:48:15;4.63;;;2.70;;
17151;SDS011;8691;50.828;4.700;2022-09-02T02:50:42;4.30;;;2.57;;
17151;SDS011;8691;50.828;4.700;2022-09-02T02:53:09;2.70;;;2.27;;
17151;SDS011;8691;50.828;4.700;2022-09-02T02:55:36;2.90;;;2.60;;
17151;SDS011;8691;50.828;4.700;2022-09-02T02:58:02;3.57;;;2.30;;
17151;SDS011;8691;50.828;4.700;2022-09-02T03:00:29;3.10;;;2.80;;
17151;SDS011;8691;50.828;4.700;2022-09-02T03:02:56;3.85;;;2.60;;
17151;SDS011;8691;50.828;4.700;2022-09-02T03:05:23;4.90;;;2.80;;
17151;SDS011;8691;50.828;4.700;2022-09-02T03:07:49;4.07;;;2.63;;
17151;SDS011;8691;50.828;4.700;2022-09-02T03:10:16;3.63;;;2.73;;
17151;SDS011;8691;50.828;4.700;2022-09-02T03:12:43;3.60;;;2.83;;
17151;SDS011;8691;50.828;4.700;2022-09-02T03:15:12;3.63;;;3.00;;
17151;SDS011;8691;50.828;4.700;2022-09-02T03:17:39;3.00;;;2.67;;
17151;SDS011;8691;50.828;4.700;2022-09-02T03:20:05;5.10;;;3.00;;
17151;SDS011;8691;50.828;4.700;2022-09-02T03:22:32;3.83;;;2.70;;
17151;SDS011;8691;50.828;4.700;2022-09-02T03:24:58;3.40;;;2.40;;
17151;SDS011;8691;50.828;4.700;2022-09-02T03:27:26;3.33;;;2.47;;
17151;SDS011;8691;50.828;4.700;2022-09-02T03:29:52;2.90;;;2.40;;
17151;SDS011;8691;50.828;4.700;2022-09-02T03:32:20;5.23;;;2.80;;
17151;SDS011;8691;50.828;4.700;2022-09-02T03:34:46;4.30;;;2.90;;
17151;SDS011;8691;50.828;4.700;2022-09-02T03:37:14;3.83;;;2.53;;
17151;SDS011;8691;50.828;4.700;2022-09-02T03:39:40;4.77;;;2.70;;
17151;SDS011;8691;50.828;4.700;2022-09-02T03:42:07;3.17;;;2.60;;
17151;SDS011;8691;50.828;4.700;2022-09-02T03:44:34;3.43;;;2.40;;
17151;SDS011;8691;50.828;4.700;2022-09-02T03:47:01;3.33;;;2.70;;
17151;SDS011;8691;50.828;4.700;2022-09-02T03:49:28;6.07;;;3.00;;
17151;SDS011;8691;50.828;4.700;2022-09-02T03:51:55;5.40;;;2.80;;
17151;SDS011;8691;50.828;4.700;2022-09-02T03:54:22;5.73;;;3.17;;
17151;SDS011;8691;50.828;4.700;2022-09-02T03:56:49;6.23;;;3.07;;
17151;SDS011;8691;50.828;4.700;2022-09-02T03:59:16;5.13;;;3.07;;
17151;SDS011;8691;50.828;4.700;2022-09-02T04:01:43;3.03;;;2.73;;
17151;SDS011;8691;50.828;4.700;2022-09-02T04:04:10;4.50;;;2.80;;
17151;SDS011;8691;50.828;4.700;2022-09-02T04:06:37;5.23;;;2.80;;
17151;SDS011;8691;50.828;4.700;2022-09-02T04:09:05;4.83;;;2.60;;
17151;SDS011;8691;50.828;4.700;2022-09-02T04:11:31;3.10;;;2.60;;
17151;SDS011;8691;50.828;4.700;2022-09-02T04:13:58;4.07;;;2.77;;
17151;SDS011;8691;50.828;4.700;2022-09-02T04:16:25;4.67;;;2.90;;
17151;SDS011;8691;50.828;4.700;2022-09-02T04:18:56;3.03;;;2.70;;
17151;SDS011;8691;50.828;4.700;2022-09-02T04:21:22;4.80;;;2.87;;
17151;SDS011;8691;50.828;4.700;2022-09-02T04:23:49;6.60;;;2.80;;
17151;SDS011;8691;50.828;4.700;2022-09-02T04:26:15;4.63;;;2.87;;
17151;SDS011;8691;50.828;4.700;2022-09-02T04:28:42;3.03;;;2.73;;
17151;SDS011;8691;50.828;4.700;2022-09-02T04:31:09;3.63;;;3.00;;
17151;SDS011;8691;50.828;4.700;2022-09-02T04:33:35;6.57;;;2.30;;
17151;SDS011;8691;50.828;4.700;2022-09-02T04:36:09;4.00;;;3.03;;
17151;SDS011;8691;50.828;4.700;2022-09-02T04:38:34;7.23;;;3.60;;
17151;SDS011;8691;50.828;4.700;2022-09-02T04:41:11;4.27;;;2.73;;
17151;SDS011;8691;50.828;4.700;2022-09-02T04:43:36;5.17;;;3.20;;
17151;SDS011;8691;50.828;4.700;2022-09-02T04:46:04;6.40;;;2.93;;
17151;SDS011;8691;50.828;4.700;2022-09-02T04:48:30;4.60;;;3.10;;
17151;SDS011;8691;50.828;4.700;2022-09-02T04:51:01;4.90;;;3.20;;
17151;SDS011;8691;50.828;4.700;2022-09-02T04:53:24;6.20;;;3.57;;
17151;SDS011;8691;50.828;4.700;2022-09-02T04:55:51;4.37;;;3.30;;
17151;SDS011;8691;50.828;4.700;2022-09-02T04:58:18;5.07;;;2.90;;
17151;SDS011;8691;50.828;4.700;2022-09-02T05:00:45;6.80;;;3.40;;
17151;SDS011;8691;50.828;4.700;2022-09-02T05:03:12;3.80;;;3.20;;
17151;SDS011;8691;50.828;4.700;2022-09-02T05:05:39;8.20;;;3.37;;
17151;SDS011;8691;50.828;4.700;2022-09-02T05:08:06;4.53;;;3.77;;
17151;SDS011;8691;50.828;4.700;2022-09-02T05:10:33;4.13;;;3.00;;
17151;SDS011;8691;50.828;4.700;2022-09-02T05:13:00;4.20;;;3.23;;
17151;SDS011;8691;50.828;4.700;2022-09-02T05:15:27;3.37;;;2.90;;
17151;SDS011;8691;50.828;4.700;2022-09-02T05:17:54;4.30;;;2.90;;
17151;SDS011;8691;50.828;4.700;2022-09-02T05:20:21;7.67;;;3.80;;
17151;SDS011;8691;50.828;4.700;2022-09-02T05:22:48;6.50;;;3.40;;
17151;SDS011;8691;50.828;4.700;2022-09-02T05:25:15;4.97;;;3.50;;
17151;SDS011;8691;50.828;4.700;2022-09-02T05:27:42;5.43;;;3.70;;
17151;SDS011;8691;50.828;4.700;2022-09-02T05:30:10;4.00;;;3.13;;
17151;SDS011;8691;50.828;4.700;2022-09-02T05:32:37;6.63;;;3.30;;
17151;SDS011;8691;50.828;4.700;2022-09-02T05:35:04;5.13;;;3.37;;
17151;SDS011;8691;50.828;4.700;2022-09-02T05:37:30;8.73;;;3.30;;
17151;SDS011;8691;50.828;4.700;2022-09-02T05:39:57;12.43;;;3.70;;
17151;SDS011;8691;50.828;4.700;2022-09-02T05:42:24;10.30;;;4.03;;
17151;SDS011;8691;50.828;4.700;2022-09-02T05:44:51;9.23;;;4.00;;
17151;SDS011;8691;50.828;4.700;2022-09-02T05:47:18;5.50;;;3.70;;
17151;SDS011;8691;50.828;4.700;2022-09-02T05:49:45;6.07;;;3.90;;
17151;SDS011;8691;50.828;4.700;2022-09-02T05:52:12;11.93;;;4.40;;
17151;SDS011;8691;50.828;4.700;2022-09-02T05:54:39;5.23;;;3.73;;
17151;SDS011;8691;50.828;4.700;2022-09-02T05:57:07;5.53;;;3.90;;
17151;SDS011;8691;50.828;4.700;2022-09-02T05:59:33;5.20;;;3.40;;
17151;SDS011;8691;50.828;4.700;2022-09-02T06:02:00;5.10;;;3.43;;
17151;SDS011;8691;50.828;4.700;2022-09-02T06:04:27;5.17;;;3.47;;
17151;SDS011;8691;50.828;4.700;2022-09-02T06:06:54;6.77;;;3.13;;
17151;SDS011;8691;50.828;4.700;2022-09-02T06:09:21;6.67;;;3.40;;
17151;SDS011;8691;50.828;4.700;2022-09-02T06:11:49;7.63;;;3.70;;
17151;SDS011;8691;50.828;4.700;2022-09-02T06:14:19;5.53;;;3.50;;
17151;SDS011;8691;50.828;4.700;2022-09-02T06:16:42;8.07;;;3.10;;
17151;SDS011;8691;50.828;4.700;2022-09-02T06:19:09;5.53;;;2.77;;
17151;SDS011;8691;50.828;4.700;2022-09-02T06:21:36;6.17;;;2.90;;
17151;SDS011;8691;50.828;4.700;2022-09-02T06:24:06;6.03;;;2.67;;
17151;SDS011;8691;50.828;4.700;2022-09-02T06:26:30;5.27;;;2.77;;
17151;SDS011;8691;50.828;4.700;2022-09-02T06:28:57;4.90;;;2.78;;
17151;SDS011;8691;50.828;4.700;2022-09-02T06:31:25;4.28;;;2.70;;
17151;SDS011;8691;50.828;4.700;2022-09-02T06:33:54;6.22;;;2.83;;
17151;SDS011;8691;50.828;4.700;2022-09-02T06:36:21;3.72;;;2.60;;
17151;SDS011;8691;50.828;4.700;2022-09-02T06:38:49;4.00;;;2.60;;
17151;SDS011;8691;50.828;4.700;2022-09-02T06:41:18;3.65;;;2.83;;
17151;SDS011;8691;50.828;4.700;2022-09-02T06:43:43;3.88;;;2.90;;
17151;SDS011;8691;50.828;4.700;2022-09-02T06:46:17;4.13;;;2.70;;
17151;SDS011;8691;50.828;4.700;2022-09-02T06:48:43;3.78;;;2.70;;
17151;SDS011;8691;50.828;4.700;2022-09-02T06:51:17;3.90;;;2.47;;
17151;SDS011;8691;50.828;4.700;2022-09-02T06:53:43;5.47;;;2.17;;
17151;SDS011;8691;50.828;4.700;2022-09-02T06:56:10;6.07;;;2.70;;
17151;SDS011;8691;50.828;4.700;2022-09-02T06:58:38;4.60;;;2.03;;
17151;SDS011;8691;50.828;4.700;2022-09-02T07:01:06;5.93;;;2.50;;
17151;SDS011;8691;50.828;4.700;2022-09-02T07:03:33;4.60;;;2.65;;
17151;SDS011;8691;50.828;4.700;2022-09-02T07:06:18;5.40;;;2.58;;
17151;SDS011;8691;50.828;4.700;2022-09-02T07:08:45;2.90;;;2.27;;
17151;SDS011;8691;50.828;4.700;2022-09-02T07:11:22;6.65;;;2.70;;
17151;SDS011;8691;50.828;4.700;2022-09-02T07:13:45;3.67;;;2.53;;
17151;SDS011;8691;50.828;4.700;2022-09-02T07:19:18;4.00;;;3.08;;
17151;SDS011;8691;50.828;4.700;2022-09-02T07:21:45;4.35;;;3.00;;
17151;SDS011;8691;50.828;4.700;2022-09-02T07:30:58;6.00;;;3.23;;
17151;SDS011;8691;50.828;4.700;2022-09-02T07:33:25;4.90;;;3.20;;
17151;SDS011;8691;50.828;4.700;2022-09-02T07:35:52;3.35;;;2.90;;
17151;SDS011;8691;50.828;4.700;2022-09-02T07:38:19;5.32;;;2.80;;
17151;SDS011;8691;50.828;4.700;2022-09-02T07:40:46;5.50;;;2.70;;
17151;SDS011;8691;50.828;4.700;2022-09-02T07:43:13;4.18;;;2.47;;
17151;SDS011;8691;50.828;4.700;2022-09-02T07:45:40;5.03;;;2.63;;
17151;SDS011;8691;50.828;4.700;2022-09-02T07:48:07;7.05;;;2.38;;
17151;SDS011;8691;50.828;4.700;2022-09-02T07:50:35;3.40;;;2.22;;
17151;SDS011;8691;50.828;4.700;2022-09-02T07:53:02;7.10;;;2.47;;
17151;SDS011;8691;50.828;4.700;2022-09-02T07:55:28;6.07;;;2.45;;
17151;SDS011;8691;50.828;4.700;2022-09-02T07:57:55;2.47;;;2.00;;
17151;SDS011;8691;50.828;4.700;2022-09-02T08:00:23;2.95;;;2.00;;
17151;SDS011;8691;50.828;4.700;2022-09-02T08:02:49;4.45;;;2.30;;
17151;SDS011;8691;50.828;4.700;2022-09-02T08:05:17;4.10;;;2.80;;
17151;SDS011;8691;50.828;4.700;2022-09-02T08:07:44;4.65;;;1.92;;
17151;SDS011;8691;50.828;4.700;2022-09-02T08:10:12;7.17;;;2.20;;
17151;SDS011;8691;50.828;4.700;2022-09-02T08:12:42;6.18;;;2.15;;
17151;SDS011;8691;50.828;4.700;2022-09-02T08:15:09;4.20;;;2.27;;
17151;SDS011;8691;50.828;4.700;2022-09-02T08:17:36;4.90;;;2.20;;
17151;SDS011;8691;50.828;4.700;2022-09-02T08:20:04;6.07;;;2.28;;
17151;SDS011;8691;50.828;4.700;2022-09-02T08:22:34;4.22;;;2.17;;
17151;SDS011;8691;50.828;4.700;2022-09-02T08:25:01;4.70;;;2.38;;
17151;SDS011;8691;50.828;4.700;2022-09-02T08:27:27;3.47;;;2.00;;
17151;SDS011;8691;50.828;4.700;2022-09-02T08:29:54;4.72;;;2.40;;
17151;SDS011;8691;50.828;4.700;2022-09-02T08:32:22;9.32;;;2.62;;
17151;SDS011;8691;50.828;4.700;2022-09-02T08:34:49;3.67;;;2.20;;
17151;SDS011;8691;50.828;4.700;2022-09-02T08:37:16;6.40;;;2.20;;
17151;SDS011;8691;50.828;4.700;2022-09-02T08:39:44;3.40;;;2.10;;
17151;SDS011;8691;50.828;4.700;2022-09-02T08:42:21;3.95;;;2.40;;
17151;SDS011;8691;50.828;4.700;2022-09-02T08:44:48;5.63;;;2.30;;
17151;SDS011;8691;50.828;4.700;2022-09-02T08:47:17;7.20;;;2.20;;
17151;SDS011;8691;50.828;4.700;2022-09-02T08:49:46;3.00;;;1.77;;
17151;SDS011;8691;50.828;4.700;2022-09-02T08:52:09;3.90;;;1.83;;
17151;SDS011;8691;50.828;4.700;2022-09-02T08:54:40;2.25;;;1.80;;
17151;SDS011;8691;50.828;4.700;2022-09-02T08:57:03;4.53;;;1.73;;
17151;SDS011;8691;50.828;4.700;2022-09-02T08:59:30;3.78;;;2.00;;
17151;SDS011;8691;50.828;4.700;2022-09-02T09:02:11;4.82;;;1.90;;
17151;SDS011;8691;50.828;4.700;2022-09-02T09:08:02;4.57;;;1.95;;
17151;SDS011;8691;50.828;4.700;2022-09-02T09:10:36;1.92;;;1.70;;
17151;SDS011;8691;50.828;4.700;2022-09-02T09:13:19;3.72;;;1.70;;
17151;SDS011;8691;50.828;4.700;2022-09-02T09:18:50;3.92;;;1.73;;
17151;SDS011;8691;50.828;4.700;2022-09-02T09:21:15;1.62;;;1.50;;
17151;SDS011;8691;50.828;4.700;2022-09-02T09:23:41;3.50;;;1.50;;
17151;SDS011;8691;50.828;4.700;2022-09-02T09:26:09;5.62;;;1.65;;
17151;SDS011;8691;50.828;4.700;2022-09-02T09:28:37;5.27;;;1.60;;
17151;SDS011;8691;50.828;4.700;2022-09-02T09:31:03;2.85;;;1.48;;
17151;SDS011;8691;50.828;4.700;2022-09-02T09:33:31;4.95;;;1.60;;
17151;SDS011;8691;50.828;4.700;2022-09-02T09:35:58;3.60;;;1.37;;
17151;SDS011;8691;50.828;4.700;2022-09-02T09:38:32;1.57;;;1.30;;
17151;SDS011;8691;50.828;4.700;2022-09-02T09:41:31;3.58;;;1.60;;
17151;SDS011;8691;50.828;4.700;2022-09-02T09:43:40;2.25;;;1.42;;
17151;SDS011;8691;50.828;4.700;2022-09-02T09:46:20;2.10;;;1.30;;
17151;SDS011;8691;50.828;4.700;2022-09-02T09:48:54;3.12;;;1.20;;
17151;SDS011;8691;50.828;4.700;2022-09-02T09:51:21;2.47;;;1.50;;
17151;SDS011;8691;50.828;4.700;2022-09-02T09:53:48;3.62;;;1.50;;
17151;SDS011;8691;50.828;4.700;2022-09-02T09:58:42;2.70;;;1.27;;
17151;SDS011;8691;50.828;4.700;2022-09-02T10:03:52;3.58;;;1.40;;
17151;SDS011;8691;50.828;4.700;2022-09-02T10:06:23;1.83;;;1.20;;
17151;SDS011;8691;50.828;4.700;2022-09-02T10:08:59;2.38;;;0.90;;
17151;SDS011;8691;50.828;4.700;2022-09-02T10:11:25;1.50;;;1.10;;
17151;SDS011;8691;50.828;4.700;2022-09-02T10:14:01;1.90;;;1.20;;
17151;SDS011;8691;50.828;4.700;2022-09-02T10:18:55;3.17;;;1.23;;
17151;SDS011;8691;50.828;4.700;2022-09-02T10:26:28;1.77;;;1.10;;
17151;SDS011;8691;50.828;4.700;2022-09-02T10:29:04;1.23;;;1.02;;
17151;SDS011;8691;50.828;4.700;2022-09-02T10:39:18;7.12;;;1.60;;
17151;SDS011;8691;50.828;4.700;2022-09-02T10:41:42;3.40;;;1.20;;
17151;SDS011;8691;50.828;4.700;2022-09-02T10:47:00;3.50;;;1.35;;
17151;SDS011;8691;50.828;4.700;2022-09-02T10:49:43;7.03;;;1.50;;
17151;SDS011;8691;50.828;4.700;2022-09-02T10:54:48;1.75;;;1.23;;
17151;SDS011;8691;50.828;4.700;2022-09-02T10:57:15;3.05;;;1.40;;
17151;SDS011;8691;50.828;4.700;2022-09-02T10:59:43;2.90;;;1.30;;
17151;SDS011;8691;50.828;4.700;2022-09-02T11:02:11;2.05;;;1.10;;
17151;SDS011;8691;50.828;4.700;2022-09-02T11:04:46;3.60;;;1.40;;
17151;SDS011;8691;50.828;4.700;2022-09-02T11:07:17;2.72;;;1.27;;
17151;SDS011;8691;50.828;4.700;2022-09-02T11:09:45;1.88;;;1.20;;
17151;SDS011;8691;50.828;4.700;2022-09-02T11:12:18;5.03;;;1.40;;
17151;SDS011;8691;50.828;4.700;2022-09-02T11:17:34;3.25;;;1.30;;
17151;SDS011;8691;50.828;4.700;2022-09-02T11:22:33;3.35;;;1.20;;
17151;SDS011;8691;50.828;4.700;2022-09-02T11:25:16;1.95;;;1.02;;
17151;SDS011;8691;50.828;4.700;2022-09-02T11:27:43;3.50;;;1.10;;
17151;SDS011;8691;50.828;4.700;2022-09-02T11:30:14;2.45;;;0.98;;
17151;SDS011;8691;50.828;4.700;2022-09-02T11:32:42;1.17;;;0.95;;
17151;SDS011;8691;50.828;4.700;2022-09-02T11:35:24;1.10;;;1.08;;
17151;SDS011;8691;50.828;4.700;2022-09-02T11:37:58;2.62;;;1.00;;
17151;SDS011;8691;50.828;4.700;2022-09-02T11:40:30;3.10;;;1.10;;
17151;SDS011;8691;50.828;4.700;2022-09-02T11:48:38;1.42;;;1.00;;
17151;SDS011;8691;50.828;4.700;2022-09-02T11:53:37;3.72;;;1.02;;
17151;SDS011;8691;50.828;4.700;2022-09-02T11:56:09;2.40;;;1.20;;
17151;SDS011;8691;50.828;4.700;2022-09-02T11:58:36;1.88;;;1.05;;
17151;SDS011;8691;50.828;4.700;2022-09-02T12:01:26;1.97;;;1.03;;
17151;SDS011;8691;50.828;4.700;2022-09-02T12:03:31;2.08;;;1.10;;
17151;SDS011;8691;50.828;4.700;2022-09-02T12:06:06;1.83;;;1.02;;
17151;SDS011;8691;50.828;4.700;2022-09-02T12:11:08;2.00;;;0.90;;
17151;SDS011;8691;50.828;4.700;2022-09-02T12:13:38;1.33;;;1.00;;
17151;SDS011;8691;50.828;4.700;2022-09-02T12:21:26;1.08;;;0.98;;
17151;SDS011;8691;50.828;4.700;2022-09-02T12:26:22;1.77;;;1.10;;
17151;SDS011;8691;50.828;4.700;2022-09-02T12:28:49;1.15;;;1.05;;
17151;SDS011;8691;50.828;4.700;2022-09-02T12:31:35;1.90;;;1.10;;
17151;SDS011;8691;50.828;4.700;2022-09-02T12:33:47;1.02;;;0.90;;
17151;SDS011;8691;50.828;4.700;2022-09-02T12:55:08;1.70;;;1.10;;
17151;SDS011;8691;50.828;4.700;2022-09-02T12:57:37;1.90;;;1.08;;
17151;SDS011;8691;50.828;4.700;2022-09-02T13:00:03;2.30;;;1.17;;
17151;SDS011;8691;50.828;4.700;2022-09-02T13:16:43;4.03;;;1.20;;
17151;SDS011;8691;50.828;4.700;2022-09-02T13:29:53;3.92;;;1.10;;
17151;SDS011;8691;50.828;4.700;2022-09-02T13:32:34;1.27;;;1.02;;
17151;SDS011;8691;50.828;4.700;2022-09-02T13:35:02;1.27;;;1.00;;
17151;SDS011;8691;50.828;4.700;2022-09-02T13:37:37;2.08;;;1.15;;
17151;SDS011;8691;50.828;4.700;2022-09-02T13:40:17;2.72;;;1.10;;
17151;SDS011;8691;50.828;4.700;2022-09-02T13:42:50;1.75;;;0.93;;
17151;SDS011;8691;50.828;4.700;2022-09-02T13:45:20;2.60;;;1.00;;
17151;SDS011;8691;50.828;4.700;2022-09-02T13:47:44;1.10;;;1.00;;
17151;SDS011;8691;50.828;4.700;2022-09-02T13:50:12;2.45;;;0.93;;
17151;SDS011;8691;50.828;4.700;2022-09-02T13:52:37;1.60;;;0.90;;
17151;SDS011;8691;50.828;4.700;2022-09-02T13:55:04;2.25;;;0.80;;
17151;SDS011;8691;50.828;4.700;2022-09-02T13:57:31;2.60;;;0.90;;
17151;SDS011;8691;50.828;4.700;2022-09-02T13:59:58;1.02;;;0.80;;
17151;SDS011;8691;50.828;4.700;2022-09-02T14:02:30;1.25;;;0.98;;
17151;SDS011;8691;50.828;4.700;2022-09-02T14:04:57;0.98;;;0.90;;
17151;SDS011;8691;50.828;4.700;2022-09-02T14:07:34;2.20;;;0.80;;
17151;SDS011;8691;50.828;4.700;2022-09-02T14:10:02;2.72;;;1.00;;
17151;SDS011;8691;50.828;4.700;2022-09-02T14:12:28;2.62;;;1.20;;
17151;SDS011;8691;50.828;4.700;2022-09-02T14:14:55;3.73;;;0.90;;
17151;SDS011;8691;50.828;4.700;2022-09-02T14:17:23;1.20;;;0.93;;
17151;SDS011;8691;50.828;4.700;2022-09-02T14:19:50;3.28;;;0.90;;
17151;SDS011;8691;50.828;4.700;2022-09-02T14:22:21;1.37;;;1.00;;
17151;SDS011;8691;50.828;4.700;2022-09-02T14:24:47;1.20;;;1.00;;
17151;SDS011;8691;50.828;4.700;2022-09-02T14:27:18;2.70;;;0.87;;
17151;SDS011;8691;50.828;4.700;2022-09-02T14:29:44;1.00;;;0.80;;
17151;SDS011;8691;50.828;4.700;2022-09-02T14:32:11;1.35;;;0.90;;
17151;SDS011;8691;50.828;4.700;2022-09-02T14:34:41;1.95;;;0.90;;
17151;SDS011;8691;50.828;4.700;2022-09-02T14:42:18;1.93;;;0.90;;
17151;SDS011;8691;50.828;4.700;2022-09-02T14:44:45;2.00;;;0.90;;
17151;SDS011;8691;50.828;4.700;2022-09-02T14:47:13;3.50;;;1.12;;
17151;SDS011;8691;50.828;4.700;2022-09-02T14:49:46;1.63;;;1.10;;
17151;SDS011;8691;50.828;4.700;2022-09-02T14:52:19;2.87;;;1.00;;
17151;SDS011;8691;50.828;4.700;2022-09-02T14:54:51;1.30;;;0.88;;
17151;SDS011;8691;50.828;4.700;2022-09-02T14:57:33;1.23;;;0.80;;
17151;SDS011;8691;50.828;4.700;2022-09-02T15:00:04;1.02;;;0.90;;
17151;SDS011;8691;50.828;4.700;2022-09-02T15:02:33;1.20;;;0.90;;
17151;SDS011;8691;50.828;4.700;2022-09-02T15:05:00;1.80;;;1.00;;
17151;SDS011;8691;50.828;4.700;2022-09-02T15:07:27;1.45;;;0.80;;
17151;SDS011;8691;50.828;4.700;2022-09-02T15:09:53;1.00;;;0.90;;
17151;SDS011;8691;50.828;4.700;2022-09-02T15:12:25;1.45;;;0.80;;
17151;SDS011;8691;50.828;4.700;2022-09-02T15:14:56;1.25;;;1.15;;
17151;SDS011;8691;50.828;4.700;2022-09-02T15:17:23;1.60;;;1.00;;
17151;SDS011;8691;50.828;4.700;2022-09-02T15:19:50;2.38;;;0.90;;
17151;SDS011;8691;50.828;4.700;2022-09-02T15:22:17;1.60;;;1.00;;
17151;SDS011;8691;50.828;4.700;2022-09-02T15:24:44;2.25;;;1.20;;
17151;SDS011;8691;50.828;4.700;2022-09-02T15:27:12;0.93;;;0.77;;
17151;SDS011;8691;50.828;4.700;2022-09-02T15:29:39;1.20;;;1.10;;
17151;SDS011;8691;50.828;4.700;2022-09-02T15:32:07;1.73;;;1.00;;
17151;SDS011;8691;50.828;4.700;2022-09-02T15:34:34;1.27;;;1.00;;
17151;SDS011;8691;50.828;4.700;2022-09-02T15:37:01;1.65;;;0.93;;
17151;SDS011;8691;50.828;4.700;2022-09-02T15:39:28;1.12;;;1.00;;
17151;SDS011;8691;50.828;4.700;2022-09-02T15:41:56;1.33;;;0.75;;
17151;SDS011;8691;50.828;4.700;2022-09-02T15:44:23;1.53;;;1.00;;
17151;SDS011;8691;50.828;4.700;2022-09-02T15:46:53;1.70;;;1.10;;
17151;SDS011;8691;50.828;4.700;2022-09-02T15:49:20;0.83;;;0.80;;
17151;SDS011;8691;50.828;4.700;2022-09-02T15:51:47;1.80;;;0.93;;
17151;SDS011;8691;50.828;4.700;2022-09-02T15:54:14;1.33;;;0.90;;
17151;SDS011;8691;50.828;4.700;2022-09-02T15:56:42;0.90;;;0.82;;
17151;SDS011;8691;50.828;4.700;2022-09-02T15:59:12;2.35;;;1.00;;
17151;SDS011;8691;50.828;4.700;2022-09-02T16:01:39;1.65;;;0.90;;
17151;SDS011;8691;50.828;4.700;2022-09-02T16:04:07;1.73;;;1.00;;
17151;SDS011;8691;50.828;4.700;2022-09-02T16:06:34;3.28;;;1.25;;
17151;SDS011;8691;50.828;4.700;2022-09-02T16:09:02;4.10;;;1.25;;
17151;SDS011;8691;50.828;4.700;2022-09-02T16:11:28;1.30;;;0.90;;
17151;SDS011;8691;50.828;4.700;2022-09-02T16:13:55;2.12;;;1.10;;
17151;SDS011;8691;50.828;4.700;2022-09-02T16:16:22;5.07;;;1.10;;
17151;SDS011;8691;50.828;4.700;2022-09-02T16:18:50;1.45;;;1.05;;
17151;SDS011;8691;50.828;4.700;2022-09-02T16:21:16;1.35;;;0.93;;
17151;SDS011;8691;50.828;4.700;2022-09-02T16:23:44;1.10;;;0.88;;
17151;SDS011;8691;50.828;4.700;2022-09-02T16:26:14;1.60;;;1.10;;
17151;SDS011;8691;50.828;4.700;2022-09-02T16:28:52;3.43;;;1.17;;
17151;SDS011;8691;50.828;4.700;2022-09-02T16:31:19;0.88;;;0.88;;
17151;SDS011;8691;50.828;4.700;2022-09-02T16:33:52;3.97;;;1.00;;
17151;SDS011;8691;50.828;4.700;2022-09-02T16:36:18;1.00;;;0.90;;
17151;SDS011;8691;50.828;4.700;2022-09-02T16:38:45;1.40;;;0.88;;
17151;SDS011;8691;50.828;4.700;2022-09-02T16:41:25;1.38;;;1.10;;
17151;SDS011;8691;50.828;4.700;2022-09-02T16:43:52;1.20;;;1.10;;
17151;SDS011;8691;50.828;4.700;2022-09-02T16:46:18;2.45;;;1.00;;
17151;SDS011;8691;50.828;4.700;2022-09-02T16:48:45;1.27;;;0.90;;
17151;SDS011;8691;50.828;4.700;2022-09-02T16:51:12;2.00;;;1.00;;
17151;SDS011;8691;50.828;4.700;2022-09-02T16:53:40;1.40;;;1.00;;
17151;SDS011;8691;50.828;4.700;2022-09-02T16:56:10;2.22;;;1.20;;
17151;SDS011;8691;50.828;4.700;2022-09-02T16:58:33;2.10;;;1.10;;
17151;SDS011;8691;50.828;4.700;2022-09-02T17:01:03;1.90;;;1.12;;
17151;SDS011;8691;50.828;4.700;2022-09-02T17:03:28;1.33;;;1.10;;
17151;SDS011;8691;50.828;4.700;2022-09-02T17:05:54;2.57;;;1.20;;
17151;SDS011;8691;50.828;4.700;2022-09-02T17:08:21;1.65;;;1.20;;
17151;SDS011;8691;50.828;4.700;2022-09-02T17:10:48;4.30;;;1.23;;
17151;SDS011;8691;50.828;4.700;2022-09-02T17:13:15;3.15;;;1.30;;
17151;SDS011;8691;50.828;4.700;2022-09-02T17:15:42;3.30;;;1.38;;
17151;SDS011;8691;50.828;4.700;2022-09-02T17:18:09;2.03;;;1.30;;
17151;SDS011;8691;50.828;4.700;2022-09-02T17:20:36;3.10;;;1.40;;
17151;SDS011;8691;50.828;4.700;2022-09-02T17:23:02;1.73;;;1.20;;
17151;SDS011;8691;50.828;4.700;2022-09-02T17:25:29;2.57;;;1.10;;
17151;SDS011;8691;50.828;4.700;2022-09-02T17:27:56;2.93;;;1.57;;
17151;SDS011;8691;50.828;4.700;2022-09-02T17:30:22;1.37;;;1.00;;